Sudbury, United Kingdom
Current Conditions -  °F | °C
As of 5:50 AM on Saturday 20 Dec 2014 (Local Time) from EGUW Reporting Station
Broken Clouds Broken Clouds  
Wind Chill: 30°   Ceiling: 19000
Heat Index: 39°   Visibility: 6mi
Dew Point: 36°   Wind: 17mph
Humidity: 87%   Direction: 240°WSW
Pressure: 30.12"   Gusts: NA
Location:  52.05°N, 0.74°E
Report Text: EGUW 200550Z AUTO 24015KT 9999 FEW150/// BKN190/// 04/02 Q1020
Loading
Personal Weather Stations






























Interactive Weather Map New forecast layout! Learn more

10-Day Weather Forecast

Advertisements
Track Severe Weather on mobile